Flight Track Log - Related Links

Times and Time Zones

All times are in EDT time to prevent confusion due to time zone crossing. See the CTL312 flight status page for this flight to view local times or setup timezone preferences in your user account.

Time Position Orientation Groundspeed Altitude Reporting Facility
EDT Latitude Longitude Course Direction KTS MPH feet Rate Location/Type
Wed 09:53:23 PM 41.5275 -81.6758 336° Northwest 132 152 1,000  Level Cleveland Center
Wed 09:53:54 PM 41.5419 -81.6844 336° Northwest 149 171 1,400 847 Climbing Cleveland Center
Wed 09:54:48 PM 41.5833 -81.7075 337° Northwest 168 193 2,200 826 Climbing Cleveland Center
Wed 09:55:43 PM 41.6228 -81.7303 337° Northwest 175 201 2,900 678 Climbing Cleveland Center
Wed 09:56:43 PM 41.6431 -81.7836 297° West 177 204 3,500 595 Climbing Cleveland Center
Wed 09:57:44 PM 41.6592 -81.8478 289° West 174 200 4,100 595 Climbing Cleveland Center
Wed 09:58:44 PM 41.6750 -81.9092 289° West 175 201 4,700 545 Climbing Cleveland Center
Wed 09:59:45 PM 41.6908 -81.9736 288° West 181 208 5,200 443 Climbing Cleveland Center
Wed 10:00:46 PM 41.7089 -82.0378 291° West 182 209 5,600 446 Climbing Cleveland Center
Wed 10:01:46 PM 41.7247 -82.1050 288° West 186 214 6,100 248 Climbing Cleveland Center
Wed 10:02:47 PM 41.7383 -82.1747 285° West 192 221 6,100 -49 Level Cleveland Center
Wed 10:03:48 PM 41.7519 -82.2419 285° West 190 219 6,000 -52 Descending Cleveland Center
Wed 10:04:42 PM 41.7656 -82.3036 287° West 190 219 6,000  Level Cleveland Center
Wed 10:05:49 PM 41.7833 -82.3736 289° West 188 216 6,000 58 Level Cleveland Center
Wed 10:06:25 PM 41.7972 -82.4158 294° West 189 217 6,100  Climbing Cleveland Center
Wed 10:07:32 PM 41.8169 -82.4917 289° West 189 217 6,000 -47 Descending Cleveland Center
Wed 10:08:33 PM 41.8283 -82.5617 282° West 191 220 6,000 47 Level Cleveland Center
Wed 10:09:40 PM 41.8456 -82.6375 287° West 190 219 6,100  Climbing Cleveland Center
Wed 10:10:41 PM 41.8864 -82.6861 318° Northwest 188 216 6,000 -50 Descending Cleveland Center
Wed 10:11:41 PM 41.9297 -82.7211 329° Northwest 188 216 6,000 52 Level Cleveland Center
Wed 10:12:36 PM 41.9686 -82.7586 324° Northwest 187 215 6,100 52 Climbing Cleveland Center
Wed 10:13:37 PM 42.0114 -82.7992 325° Northwest 186 214 6,100  Level Cleveland Center
Wed 10:14:37 PM 42.0525 -82.8342 328° Northwest 186 214 6,100 -47 Level Cleveland Center
Wed 10:15:44 PM 42.1036 -82.8808 326° Northwest 188 216 6,000 -141 Descending Cleveland Center
Wed 10:16:45 PM 42.1467 -82.9217 325° Northwest 186 214 5,800 -344 Descending Cleveland Center
Wed 10:17:46 PM 42.1939 -82.9625 327° Northwest 202 232 5,300 -567 Descending Cleveland Center
Wed 10:18:52 PM 42.2450 -83.0039 329° Northwest 205 236 4,600 -614 Descending Cleveland Center
Wed 10:19:53 PM 42.2942 -83.0478 327° Northwest 197 227 4,000 -246 Descending Cleveland Center
Wed 10:20:54 PM 42.3369 -83.0861 326° Northwest 177 204 4,100 50 Climbing Cleveland Center
Wed 10:21:54 PM 42.3778 -83.1242 325° Northwest 181 208 4,100  Level Cleveland Center
Wed 10:22:55 PM 42.4208 -83.1625 327° Northwest 179 206 4,100 -49 Level Cleveland Center
Wed 10:23:56 PM 42.4617 -83.2064 322° Northwest 181 208 4,000 -347 Descending Cleveland Center
Wed 10:24:56 PM 42.5044 -83.2447 327° Northwest 186 214 3,400 -522 Descending Cleveland Center
Wed 10:25:51 PM 42.5369 -83.2800 321° Northwest 182 209 3,000 -491 Descending Cleveland Center
Wed 10:26:46 PM 42.5756 -83.3239 320° Northwest 186 214 2,500 -522 Descending Cleveland Center
Wed 10:27:46 PM 42.6097 -83.3706 315° West 181 208 2,000 -298 Descending Cleveland Center
Wed 10:28:47 PM 42.6333 -83.4281 299° West 151 174 1,900 -98 Descending Cleveland Center

Login

Don't have an account? Register now (free) for customized features, flight alerts, and more!